DRRN/NIM METAR and TAF weather

Enter ICAO airport designator
Station Type Date Time Source
DRRN METAR 2019/08/22 08:00 UTC NOAA

DRRN 220800Z 27004KT 240V300 9999 SCT015 FEW030CB 26/20 Q1012 TEMPO 4000 TSRA


Station Type Date Time Source
DRRN Decoded METAR 2019/08/22 08:00 UTC NOAA

Station name not available
Aug 22, 2019 - 04:00 AM EDT / 2019.08.22 0800 UTC
Wind: from the W (270 degrees) at 5 MPH (4 KT) (direction variable):0
Visibility: greater than 7 mile(s):0
Sky conditions: partly cloudy
Weather: Cumulonimbus clouds observed
Temperature: 78 F (26 C)
Dew Point: 68 F (20 C)
Relative Humidity: 69%
Pressure (altimeter): 29.88 in. Hg (1012 hPa)
ob: DRRN 220800Z 27004KT 240V300 9999 SCT015 FEW030CB 26/20 Q1012 TEMPO 4000 TSRA
cycle: 8

Station Type Date Time Source
DRRN TAF 2019/08/22 06:24 UTC NOAA

TAF DRRN 220500Z 2206/2312 24006KT 9999 FEW020 PROB40
TEMPO 2206/2212 4000 TS SHRA BKN016 SCT020CB

Example: see airport list